Stations météo

réclame
Mon MeteoGroup
Concordia Sagittaria, Italie (16107): Température de l'air & dewpoint: 19.09.2018 07:00:00 - 25.09.2018 07:00:00 (CEST)Concordia Sagittaria, Italie (16107): Vitesse du vent: 19.09.2018 07:00:00 - 25.09.2018 07:00:00 (CEST)Concordia Sagittaria, Italie (16107): Direction du vent: 19.09.2018 07:00:00 - 25.09.2018 07:00:00 (CEST)Concordia Sagittaria, Italie (16107): reduced air pressure: 19.09.2018 07:00:00 - 25.09.2018 07:00:00 (CEST)Concordia Sagittaria, Italie (16107): Quantités de précipitations: 19.09.2018 07:00:00 - 25.09.2018 07:00:00 (CEST)
Date & Time tt [°C] td [°C] ff [km/h] ff [knt] dd ppp [hPa] rr [mm]
25.09.2018 07:00:00 9,3 5,0 4 2 N 1035,7 -
25.09.2018 06:00:00 9,6 4,9 4 2 NW 1035,4 -
25.09.2018 05:00:00 10,8 5,5 8 4 NNW 1035,2 -
25.09.2018 04:00:00 12,5 6,0 5 3 N 1035,0 -
25.09.2018 03:00:00 14,2 6,5 13 7 NE 1034,5 -
25.09.2018 02:00:00 13,8 7,7 11 6 NE 1034,0 0,0
25.09.2018 01:00:00 13,4 7,1 8 4 NNE 1033,5 -
25.09.2018 00:00:00 13,0 7,2 5 3 E 1032,5 -
24.09.2018 23:00:00 13,7 7,8 4 2 SW 1031,5 -
24.09.2018 22:00:00 15,5 7,5 8 4 ENE 1029,7 -
24.09.2018 21:00:00 18,0 7,9 15 8 ENE 1028,1 -
24.09.2018 20:00:00 20,0 8,3 24 13 E 1027,1 0,0
24.09.2018 19:00:00 20,7 10,4 21 11 E 1026,0 -
24.09.2018 18:00:00 21,8 11,2 22 12 E 1025,2 -
24.09.2018 17:00:00 22,4 12,0 24 13 E 1024,7 -
24.09.2018 16:00:00 23,8 9,7 34 18 ENE 1024,2 -
24.09.2018 15:00:00 23,8 10,8 28 15 ENE 1023,5 -
24.09.2018 14:00:00 23,6 13,1 29 16 NNE 1022,6 0,0
24.09.2018 13:00:00 22,7 15,0 31 17 NE 1021,3 -
24.09.2018 12:00:00 21,1 10,2 18 10 NNE 1019,8 -
24.09.2018 11:00:00 19,4 17,7 22 12 NNW 1017,5 -
24.09.2018 10:00:00 19,0 17,3 0 0 N 1016,1 -
24.09.2018 09:00:00 19,3 17,6 0 0 N 1015,0 -
24.09.2018 08:00:00 18,8 17,1 8 4 N 1014,4 0,0
24.09.2018 07:00:00 19,4 17,7 2 1 NNW 1013,8 -
24.09.2018 06:00:00 19,4 17,7 0 0 N 1014,0 -
24.09.2018 05:00:00 19,7 18,0 0 0 N 1014,1 -
24.09.2018 04:00:00 19,5 17,8 0 0 N 1014,3 -
24.09.2018 03:00:00 19,3 17,6 5 3 NNW 1014,9 -
24.09.2018 02:00:00 19,1 17,4 0 0 N 1016,3 0,0
24.09.2018 01:00:00 18,9 17,2 4 2 NW 1017,8 -
24.09.2018 00:00:00 18,8 17,1 4 2 S 1018,4 -
23.09.2018 23:00:00 18,8 17,1 0 0 N 1018,7 -
23.09.2018 22:00:00 19,8 18,1 0 0 N 1018,8 -
23.09.2018 21:00:00 21,6 19,6 0 0 N 1019,2 -
23.09.2018 20:00:00 22,0 19,9 5 3 N 1019,9 0,0
23.09.2018 19:00:00 21,9 19,9 4 2 N 1020,5 -
23.09.2018 18:00:00 21,2 19,3 8 4 NNE 1021,2 -
23.09.2018 17:00:00 20,9 19,1 11 6 NNE 1022,0 -
23.09.2018 16:00:00 20,4 18,6 15 8 NNE 1022,9 -
23.09.2018 15:00:00 19,9 18,0 13 7 N 1023,3 -
23.09.2018 14:00:00 18,9 17,2 11 6 N 1023,8 0,0
23.09.2018 13:00:00 18,1 16,4 15 8 N 1023,8 -
23.09.2018 12:00:00 17,1 15,4 8 4 N 1023,5 -
23.09.2018 11:00:00 16,7 15,0 9 5 N 1023,2 -
23.09.2018 10:00:00 16,3 14,6 9 5 N 1023,0 -
23.09.2018 09:00:00 16,1 13,7 11 6 N 1022,6 -
23.09.2018 08:00:00 15,7 13,3 11 6 N 1022,9 0,0
23.09.2018 07:00:00 15,5 13,3 11 6 NNE 1023,0 -
23.09.2018 06:00:00 15,5 13,1 8 4 NE 1023,3 -
23.09.2018 05:00:00 15,5 12,8 9 5 N 1023,7 -
23.09.2018 04:00:00 15,2 12,7 11 6 NNE 1024,0 -
23.09.2018 03:00:00 14,9 13,2 9 5 NNE 1024,2 -
23.09.2018 02:00:00 15,0 12,5 8 4 NNW 1024,2 0,0
23.09.2018 01:00:00 16,5 12,4 16 9 NNE 1024,3 -
23.09.2018 00:00:00 16,9 13,2 13 7 NNE 1024,2 -
22.09.2018 23:00:00 17,3 13,3 16 9 N 1023,9 -
22.09.2018 22:00:00 17,9 13,1 11 6 N 1023,6 -
22.09.2018 21:00:00 18,5 13,7 29 16 N 1023,1 -
22.09.2018 20:00:00 19,8 15,0 24 13 NE 1022,7 0,0
22.09.2018 19:00:00 19,7 15,3 24 13 NNE 1022,3 -
22.09.2018 18:00:00 20,6 16,1 35 19 NE 1021,9 -
22.09.2018 17:00:00 24,2 18,8 29 16 NNE 1021,3 -
22.09.2018 16:00:00 26,4 21,6 8 4 E 1020,8 -
22.09.2018 15:00:00 25,0 23,2 8 4 NE 1020,9 -
22.09.2018 14:00:00 24,4 22,6 9 5 NNE 1020,7 0,0
22.09.2018 13:00:00 21,9 20,1 9 5 NE 1020,8 -
22.09.2018 12:00:00 21,1 19,3 16 9 E 1020,7 -
22.09.2018 11:00:00 21,2 19,4 13 7 NE 1020,1 -
22.09.2018 10:00:00 21,1 19,3 8 4 NNE 1019,4 -
22.09.2018 09:00:00 19,7 18,0 8 4 NNE 1018,9 -
22.09.2018 08:00:00 19,4 17,7 4 2 NNE 1018,8 0,0
22.09.2018 07:00:00 19,4 17,7 5 3 ENE 1018,8 -
22.09.2018 06:00:00 19,3 17,6 0 0 N 1018,7 -
22.09.2018 05:00:00 19,5 17,8 0 0 N 1019,0 -
22.09.2018 04:00:00 19,6 17,9 5 3 N 1019,3 -
22.09.2018 03:00:00 19,6 17,9 4 2 NNE 1019,3 -
22.09.2018 02:00:00 20,2 18,4 4 2 N 1019,4 0,0
22.09.2018 01:00:00 19,7 18,0 0 0 N 1019,0 -
22.09.2018 00:00:00 19,8 18,1 4 2 SE 1019,0 -
21.09.2018 23:00:00 21,0 18,1 2 1 SSE 1018,7 -
21.09.2018 22:00:00 22,6 18,3 5 3 SE 1018,1 -
21.09.2018 21:00:00 25,1 18,0 5 3 S 1018,1 -
21.09.2018 20:00:00 27,4 17,8 15 8 SSE 1018,1 0,0
21.09.2018 19:00:00 29,4 17,2 11 6 SSE 1018,2 -
21.09.2018 18:00:00 29,3 19,0 15 8 SE 1018,6 -
21.09.2018 17:00:00 29,4 19,1 13 7 SE 1019,0 -
21.09.2018 16:00:00 29,6 17,7 8 4 W 1019,3 -
21.09.2018 15:00:00 29,1 17,3 5 3 SSE 1019,7 -
21.09.2018 14:00:00 27,9 18,8 4 2 NW 1019,9 0,0
21.09.2018 13:00:00 25,9 18,8 2 1 NNE 1020,3 -
21.09.2018 12:00:00 23,6 18,8 8 4 N 1020,5 -
21.09.2018 11:00:00 20,5 18,0 4 2 NNE 1020,5 -
21.09.2018 10:00:00 17,9 16,2 4 2 N 1020,6 -
21.09.2018 09:00:00 17,3 15,6 4 2 NW 1020,4 -
21.09.2018 08:00:00 17,0 15,3 5 3 NNW 1020,6 0,0
21.09.2018 07:00:00 17,7 16,0 4 2 N 1020,6 -
21.09.2018 06:00:00 18,3 16,4 8 4 N 1020,9 -
21.09.2018 05:00:00 18,7 16,6 8 4 NNW 1021,3 -
21.09.2018 04:00:00 19,1 16,6 4 2 NNW 1021,7 -
21.09.2018 03:00:00 19,7 16,9 8 4 N 1021,8 -
21.09.2018 02:00:00 20,0 17,0 5 3 N 1022,2 0,0
21.09.2018 01:00:00 20,7 17,4 5 3 NNE 1022,2 -
21.09.2018 00:00:00 20,8 17,3 5 3 NNE 1022,0 -
20.09.2018 23:00:00 21,4 16,3 0 0 N 1021,8 -
20.09.2018 22:00:00 23,1 16,1 4 2 SW 1021,6 -
20.09.2018 21:00:00 26,3 16,5 4 2 S 1021,4 -
20.09.2018 20:00:00 28,7 16,2 8 4 S 1021,4 0,0
20.09.2018 19:00:00 29,6 17,4 8 4 SE 1021,6 -
20.09.2018 18:00:00 30,5 16,1 0 0 N 1021,8 -
20.09.2018 17:00:00 30,7 16,3 2 1 ESE 1022,3 -
20.09.2018 16:00:00 30,1 17,2 9 5 ENE 1022,9 -
20.09.2018 15:00:00 29,3 17,1 11 6 NNE 1023,4 -
20.09.2018 14:00:00 28,6 18,0 9 5 NNE 1023,8 0,0
20.09.2018 13:00:00 27,1 18,3 15 8 NNE 1024,2 -
20.09.2018 12:00:00 24,5 18,6 15 8 N 1024,1 -
20.09.2018 11:00:00 21,9 18,6 9 5 N 1024,0 -
20.09.2018 10:00:00 18,7 17,0 9 5 NNW 1023,8 -
20.09.2018 09:00:00 18,2 16,5 8 4 NNW 1023,6 -
20.09.2018 08:00:00 18,4 16,7 11 6 NNW 1023,5 0,0
20.09.2018 07:00:00 18,9 17,2 9 5 NNW 1023,7 -
20.09.2018 06:00:00 19,5 17,8 8 4 NNE 1023,8 -
20.09.2018 05:00:00 19,1 17,4 8 4 NNW 1024,0 -
20.09.2018 04:00:00 19,6 17,9 5 3 NW 1024,3 -
20.09.2018 03:00:00 19,4 17,7 5 3 NNW 1024,5 -
20.09.2018 02:00:00 20,8 18,7 2 1 NNW 1024,9 0,0
20.09.2018 01:00:00 21,1 19,3 8 4 N 1024,9 -
20.09.2018 00:00:00 22,2 20,4 0 0 N 1024,5 -
19.09.2018 23:00:00 21,9 19,6 0 0 N 1024,4 -
19.09.2018 22:00:00 22,5 18,8 4 2 SE 1023,6 -
19.09.2018 21:00:00 24,8 19,6 4 2 SE 1023,5 -
19.09.2018 20:00:00 27,1 20,4 5 3 SE 1023,1 0,0
19.09.2018 19:00:00 27,7 21,4 15 8 S 1022,9 -
19.09.2018 18:00:00 27,7 21,7 9 5 S 1023,2 -
19.09.2018 17:00:00 28,9 21,6 11 6 ESE 1023,3 -
19.09.2018 16:00:00 27,5 19,2 2 1 WSW 1023,9 -
19.09.2018 15:00:00 27,2 20,7 5 3 SE 1024,1 -
19.09.2018 14:00:00 25,6 20,8 5 3 E 1024,4 0,0
19.09.2018 13:00:00 24,8 21,3 0 0 N 1024,7 -
19.09.2018 12:00:00 23,3 20,4 5 3 NNW 1024,9 -
19.09.2018 11:00:00 20,7 18,9 8 4 NNE 1024,6 -
19.09.2018 10:00:00 18,5 16,8 5 3 NNW 1024,5 -
19.09.2018 09:00:00 17,7 16,0 4 2 N 1023,8 -
19.09.2018 08:00:00 17,6 15,9 5 3 N 1023,6 0,0
19.09.2018 07:00:00 18,0 16,3 4 2 NNE 1023,5 -

tt = Température de l'air
td = dewpoint
ff = Vitesse du vent
dd = Direction du vent
ppp = reduced air pressure
rr = Quantités de précipitations

stations d'obs. à proximité